createdAt,value
2018-01-07T00:01:40.375Z,101006.38
2018-01-07T00:04:07.881Z,100998.78
2018-01-07T00:06:35.399Z,101007.23
2018-01-07T00:09:02.888Z,101004.66
2018-01-07T00:11:30.387Z,101005.12
2018-01-07T00:13:57.860Z,101006.38
2018-01-07T00:16:25.359Z,101008.11
2018-01-07T00:18:53.756Z,101007.15
2018-01-07T00:21:21.292Z,101018.97
2018-01-07T00:23:48.818Z,101015.89
2018-01-07T00:26:16.308Z,101021.45
2018-01-07T00:28:43.814Z,101024.80
2018-01-07T00:31:11.314Z,101023.58
2018-01-07T00:33:38.823Z,101018.05
2018-01-07T00:36:06.327Z,101031.22
2018-01-07T00:38:33.837Z,101038.27
2018-01-07T00:41:01.359Z,101035.69
2018-01-07T00:43:28.874Z,101036.91
2018-01-07T00:45:56.372Z,101045.31
2018-01-07T00:48:23.878Z,101049.95
2018-01-07T00:50:51.391Z,101046.23
2018-01-07T00:53:18.892Z,101070.16
2018-01-07T00:55:46.401Z,101059.61
2018-01-07T00:58:13.884Z,101065.14
2018-01-07T01:00:41.373Z,101078.09
2018-01-07T01:03:09.490Z,101085.73
2018-01-07T01:05:36.986Z,101090.42
2018-01-07T01:08:04.485Z,101082.70
2018-01-07T01:10:31.987Z,101093.33
2018-01-07T01:12:59.468Z,101105.48
2018-01-07T01:15:26.966Z,101099.91
2018-01-07T01:17:54.473Z,101106.19
2018-01-07T01:20:21.974Z,101111.77
2018-01-07T01:22:49.464Z,101115.98
2018-01-07T01:25:16.957Z,101121.42
2018-01-07T01:27:44.437Z,101128.13
2018-01-07T01:30:11.941Z,101126.30
2018-01-07T01:32:39.433Z,101142.75
2018-01-07T01:35:06.953Z,101142.27
2018-01-07T01:37:35.407Z,101158.64
2018-01-07T01:40:02.985Z,101151.04
2018-01-07T01:42:30.480Z,101148.00
2018-01-07T01:44:57.960Z,101166.50
2018-01-07T01:47:25.440Z,101175.46
2018-01-07T01:49:52.926Z,101161.88
2018-01-07T01:52:20.419Z,101163.97
2018-01-07T01:54:47.892Z,101179.53
2018-01-07T01:57:15.402Z,101188.80
2018-01-07T01:59:42.888Z,101192.59
2018-01-07T02:02:10.376Z,101207.69
2018-01-07T02:04:37.864Z,101201.09
2018-01-07T02:07:05.371Z,101206.16
2018-01-07T02:09:32.866Z,101212.05
2018-01-07T02:12:00.397Z,101220.55
2018-01-07T02:14:28.805Z,101225.23
2018-01-07T02:16:56.323Z,101217.07
2018-01-07T02:19:23.820Z,101231.52
2018-01-07T02:21:51.320Z,101230.61
2018-01-07T02:24:18.813Z,101240.27
2018-01-07T02:26:46.304Z,101245.69
2018-01-07T02:29:13.785Z,101243.64
2018-01-07T02:31:41.290Z,101248.22
2018-01-07T02:34:08.937Z,101255.86
2018-01-07T02:36:36.443Z,101259.61
2018-01-07T02:39:03.959Z,101255.82
2018-01-07T02:41:31.458Z,101262.20
2018-01-07T02:43:58.959Z,101263.83
2018-01-07T02:46:26.443Z,101265.10
2018-01-07T02:48:54.007Z,101268.05
2018-01-07T02:51:21.490Z,101274.32
2018-01-07T02:53:48.989Z,101276.91
2018-01-07T02:56:16.506Z,101279.91
2018-01-07T02:58:44.009Z,101277.53
2018-01-07T03:01:11.510Z,101283.55
2018-01-07T03:03:38.997Z,101288.77
2018-01-07T03:06:06.567Z,101300.14
2018-01-07T03:08:34.061Z,101302.83
2018-01-07T03:11:01.562Z,101309.42
2018-01-07T03:13:29.043Z,101321.04
2018-01-07T03:15:56.575Z,101314.84
2018-01-07T03:18:24.082Z,101319.94
2018-01-07T03:20:51.591Z,101332.31
2018-01-07T03:23:19.072Z,101335.14
2018-01-07T03:25:46.564Z,101338.89
2018-01-07T03:28:14.078Z,101349.44
2018-01-07T03:30:41.588Z,101354.07
2018-01-07T03:33:09.099Z,101356.91
2018-01-07T03:35:36.599Z,101361.52
2018-01-07T03:38:04.072Z,101368.16
2018-01-07T03:40:31.583Z,101373.81
2018-01-07T03:42:59.087Z,101375.55
2018-01-07T03:45:26.581Z,101377.72
2018-01-07T03:47:54.080Z,101375.38
2018-01-07T03:50:21.569Z,101382.55
2018-01-07T03:52:49.297Z,101391.52
2018-01-07T03:55:16.781Z,101397.78
2018-01-07T03:57:44.293Z,101404.14
2018-01-07T04:00:11.800Z,101395.47
2018-01-07T04:02:39.299Z,101397.52
2018-01-07T04:05:06.791Z,101397.74
2018-01-07T04:07:34.290Z,101400.69
2018-01-07T04:10:01.787Z,101405.45
2018-01-07T04:12:29.305Z,101418.56
2018-01-07T04:14:56.826Z,101422.57
2018-01-07T04:17:24.315Z,101430.83
2018-01-07T04:19:51.804Z,101436.00
2018-01-07T04:22:19.349Z,101445.88
2018-01-07T04:24:46.817Z,101444.05
2018-01-07T04:27:14.319Z,101444.19
2018-01-07T04:29:41.837Z,101459.01
2018-01-07T04:32:09.332Z,101447.08
2018-01-07T04:34:36.827Z,101460.13
2018-01-07T04:37:04.323Z,101458.39
2018-01-07T04:39:31.831Z,101479.45
2018-01-07T04:41:59.344Z,101473.06
2018-01-07T04:44:26.891Z,101468.38
2018-01-07T04:46:54.360Z,101473.63
2018-01-07T04:49:21.862Z,101475.08
2018-01-07T04:51:49.367Z,101479.17
2018-01-07T04:54:16.836Z,101493.28
2018-01-07T04:56:44.365Z,101491.29
2018-01-07T04:59:11.862Z,101501.44
2018-01-07T05:01:39.361Z,101497.85
2018-01-07T05:04:06.847Z,101508.91
2018-01-07T05:06:34.319Z,101517.97
2018-01-07T05:09:01.796Z,101512.80
2018-01-07T05:11:29.305Z,101515.19
2018-01-07T05:13:56.796Z,101514.86
2018-01-07T05:16:24.305Z,101514.18
2018-01-07T05:18:51.802Z,101518.42
2018-01-07T05:21:19.273Z,101524.02
2018-01-07T05:23:46.752Z,101519.87
2018-01-07T05:26:14.256Z,101515.30
2018-01-07T05:28:41.746Z,101518.58
2018-01-07T05:31:09.290Z,101535.13
2018-01-07T05:33:36.784Z,101526.78
2018-01-07T05:36:04.303Z,101545.54
2018-01-07T05:38:31.803Z,101539.61
2018-01-07T05:40:59.331Z,101538.98
2018-01-07T05:43:26.872Z,101556.62
2018-01-07T05:45:54.378Z,101560.23
2018-01-07T05:48:21.903Z,101567.00
2018-01-07T05:50:49.424Z,101578.47
2018-01-07T05:53:16.922Z,101588.65
2018-01-07T05:55:44.407Z,101576.84
2018-01-07T05:58:11.900Z,101600.70
2018-01-07T06:00:39.386Z,101606.23
2018-01-07T06:03:06.887Z,101610.38
2018-01-07T06:05:34.389Z,101604.00
2018-01-07T06:08:01.868Z,101611.33
2018-01-07T06:10:29.374Z,101619.96
2018-01-07T06:12:56.887Z,101622.17
2018-01-07T06:15:24.379Z,101616.19
2018-01-07T06:17:52.731Z,101622.84
2018-01-07T06:20:20.237Z,101628.81
2018-01-07T06:22:47.740Z,101635.84
2018-01-07T06:25:15.228Z,101653.79
2018-01-07T06:27:42.724Z,101660.91
2018-01-07T06:30:10.212Z,101661.08
2018-01-07T06:32:37.703Z,101662.39
2018-01-07T06:35:05.200Z,101664.42
2018-01-07T06:37:32.695Z,101664.68
2018-01-07T06:40:00.224Z,101667.12
2018-01-07T06:42:27.719Z,101660.05
2018-01-07T06:44:55.212Z,101673.48
2018-01-07T06:47:22.712Z,101675.91
2018-01-07T06:49:50.441Z,101682.66
2018-01-07T06:52:17.952Z,101685.67
2018-01-07T06:54:45.478Z,101691.08
2018-01-07T06:57:12.974Z,101698.63
2018-01-07T06:59:40.519Z,101704.91
2018-01-07T07:02:08.042Z,101721.91
2018-01-07T07:04:35.527Z,101721.34
2018-01-07T07:07:03.016Z,101723.67
2018-01-07T07:09:30.508Z,101724.70
2018-01-07T07:11:57.992Z,101727.95
2018-01-07T07:14:25.493Z,101736.38
2018-01-07T07:16:52.995Z,101744.59
2018-01-07T07:19:20.486Z,101760.64
2018-01-07T07:21:47.976Z,101757.83
2018-01-07T07:24:15.448Z,101771.08
2018-01-07T07:26:42.936Z,101779.78
2018-01-07T07:29:10.440Z,101777.45
2018-01-07T07:31:37.945Z,101774.81
2018-01-07T07:34:05.453Z,101766.28
2018-01-07T07:36:32.941Z,101761.97
2018-01-07T07:39:00.424Z,101767.27
2018-01-07T07:41:27.913Z,101762.33
2018-01-07T07:43:55.426Z,101755.76
2018-01-07T07:46:22.939Z,101767.95
2018-01-07T07:48:50.429Z,101781.06
2018-01-07T07:51:17.955Z,101790.55
2018-01-07T07:53:45.515Z,101800.30
2018-01-07T07:56:13.342Z,101806.14
2018-01-07T07:58:40.830Z,101810.91
2018-01-07T08:01:08.337Z,101815.30
2018-01-07T08:03:35.851Z,101816.77
2018-01-07T08:06:03.383Z,101825.52
2018-01-07T08:08:30.893Z,101822.64
2018-01-07T08:10:58.715Z,101829.06
2018-01-07T08:13:26.208Z,101838.62
2018-01-07T08:15:53.713Z,101839.23
2018-01-07T08:18:21.224Z,101843.01
2018-01-07T08:21:22.728Z,101846.41
2018-01-07T08:23:50.215Z,101852.73
2018-01-07T08:26:17.703Z,101855.95
2018-01-07T08:28:45.283Z,101867.94
2018-01-07T08:31:14.656Z,101871.13
2018-01-07T08:33:42.133Z,101881.03
2018-01-07T08:36:09.639Z,101885.34
2018-01-07T08:38:37.169Z,101904.58
2018-01-07T08:41:04.755Z,101909.58
2018-01-07T08:43:33.215Z,101916.76
2018-01-07T08:46:00.726Z,101913.08
2018-01-07T08:48:28.267Z,101921.30
2018-01-07T08:50:55.760Z,101914.17
2018-01-07T08:53:23.256Z,101930.30
2018-01-07T08:55:50.755Z,101933.78
2018-01-07T08:58:18.256Z,101935.30
2018-01-07T09:00:45.800Z,101946.41
2018-01-07T09:03:13.292Z,101948.98
2018-01-07T09:05:42.287Z,101954.35
2018-01-07T09:08:09.831Z,101959.05
2018-01-07T09:10:37.336Z,101958.55
2018-01-07T09:13:05.300Z,101966.49
2018-01-07T09:15:34.317Z,101968.43
2018-01-07T09:18:01.797Z,101970.92
2018-01-07T09:20:29.322Z,101980.73
2018-01-07T09:22:56.827Z,101988.78
2018-01-07T09:25:24.357Z,101981.41
2018-01-07T09:27:51.873Z,101977.99
2018-01-07T09:30:20.269Z,101987.81
2018-01-07T09:32:48.559Z,101997.02
2018-01-07T09:35:16.084Z,101996.34
2018-01-07T09:37:43.591Z,102000.56
2018-01-07T09:40:11.116Z,102005.59
2018-01-07T09:42:38.710Z,102009.31
2018-01-07T09:45:06.227Z,102013.50
2018-01-07T09:47:33.863Z,102012.55
2018-01-07T09:50:01.440Z,102014.31
2018-01-07T09:52:28.945Z,102013.17
2018-01-07T09:54:56.451Z,102019.14
2018-01-07T09:57:23.942Z,102024.00
2018-01-07T09:59:51.440Z,102028.38
2018-01-07T10:02:18.952Z,102023.98
2018-01-07T10:04:46.450Z,102023.88
2018-01-07T10:07:13.937Z,102018.29
2018-01-07T10:09:41.428Z,102019.22
2018-01-07T10:12:08.940Z,102014.42
2018-01-07T10:14:36.432Z,102022.83
2018-01-07T10:17:03.965Z,102019.89
2018-01-07T10:19:31.480Z,102013.84
2018-01-07T10:21:58.987Z,102011.66
2018-01-07T10:24:26.472Z,102009.83
2018-01-07T10:26:53.970Z,102007.14
2018-01-07T10:29:21.454Z,102002.78
2018-01-07T10:31:48.955Z,102007.50
2018-01-07T10:34:16.468Z,102011.28
2018-01-07T10:36:43.960Z,102013.03
2018-01-07T10:39:11.459Z,102013.30
2018-01-07T10:41:39.019Z,102018.42
2018-01-07T10:44:06.544Z,102014.56
2018-01-07T10:46:34.097Z,102023.73
2018-01-07T10:49:01.622Z,102024.50
2018-01-07T10:51:29.115Z,102021.83
2018-01-07T10:53:56.600Z,102028.82
2018-01-07T10:56:24.139Z,102037.59
2018-01-07T10:58:51.669Z,102029.73
2018-01-07T11:01:24.784Z,102029.36
2018-01-07T11:03:52.309Z,102025.69
2018-01-07T11:06:19.814Z,102033.09
2018-01-07T11:08:47.334Z,102024.61
2018-01-07T11:11:14.868Z,102030.80
2018-01-07T11:13:42.372Z,102028.72
2018-01-07T11:16:09.911Z,102028.91
2018-01-07T11:18:37.439Z,102025.44
2018-01-07T11:21:04.943Z,102026.41
2018-01-07T11:23:32.454Z,102029.98
2018-01-07T11:25:59.957Z,102050.30
2018-01-07T11:28:27.471Z,102054.87
2018-01-07T11:30:54.983Z,102043.81
2018-01-07T11:33:22.487Z,102051.51
2018-01-07T11:35:49.990Z,102046.58
2018-01-07T11:38:17.482Z,102046.30
2018-01-07T11:40:45.021Z,102037.83
2018-01-07T11:43:12.521Z,102038.64
2018-01-07T11:45:40.046Z,102042.30
2018-01-07T11:48:07.552Z,102025.38
2018-01-07T11:50:35.083Z,102033.10
2018-01-07T11:53:02.579Z,102031.34
2018-01-07T11:55:30.081Z,102021.19
2018-01-07T11:57:58.839Z,102028.80
2018-01-07T12:00:26.359Z,102030.50
2018-01-07T12:02:53.864Z,102031.62
2018-01-07T12:05:21.394Z,102032.03
2018-01-07T12:07:48.913Z,102028.98
2018-01-07T12:10:16.428Z,102034.80
2018-01-07T12:12:43.933Z,102033.61
2018-01-07T12:15:12.572Z,102044.48
2018-01-07T12:17:40.951Z,102051.34
2018-01-07T12:20:08.453Z,102047.95
2018-01-07T12:22:36.035Z,102045.51
2018-01-07T12:25:03.516Z,102049.91
2018-01-07T12:27:31.032Z,102042.94
2018-01-07T12:29:58.529Z,102038.39
2018-01-07T12:32:26.059Z,102031.44
2018-01-07T12:34:53.598Z,102037.14
2018-01-07T12:37:21.593Z,102043.39
2018-01-07T12:39:49.089Z,102040.98
2018-01-07T12:42:16.594Z,102035.11
2018-01-07T12:44:44.103Z,102042.11
2018-01-07T12:47:11.600Z,102032.15
2018-01-07T12:49:39.112Z,102035.42
2018-01-07T12:52:06.632Z,102024.22
2018-01-07T12:54:34.178Z,102031.62
2018-01-07T12:57:01.688Z,102034.87
2018-01-07T12:59:29.229Z,102037.71
2018-01-07T13:01:56.735Z,102029.15
2018-01-07T13:04:24.273Z,102027.81
2018-01-07T13:06:51.772Z,102015.51
2018-01-07T13:09:19.256Z,102026.63
2018-01-07T13:11:49.147Z,102026.67
2018-01-07T13:14:16.663Z,102027.77
2018-01-07T13:16:44.171Z,102025.43
2018-01-07T13:19:11.712Z,102038.97
2018-01-07T13:21:39.213Z,102037.45
2018-01-07T13:24:06.737Z,102032.45
2018-01-07T13:26:34.244Z,102031.60
2018-01-07T13:29:01.778Z,102039.42
2018-01-07T13:31:29.301Z,102043.37
2018-01-07T13:33:56.805Z,102048.77
2018-01-07T13:36:24.310Z,102048.05
2018-01-07T13:38:51.808Z,102053.82
2018-01-07T13:41:19.301Z,102051.91
2018-01-07T13:43:46.820Z,102056.67
2018-01-07T13:46:14.316Z,102063.38
2018-01-07T13:48:41.801Z,102067.27
2018-01-07T13:51:09.297Z,102069.71
2018-01-07T13:53:36.792Z,102070.37
2018-01-07T13:56:04.276Z,102081.23
2018-01-07T13:58:31.772Z,102077.31
2018-01-07T14:00:59.272Z,102069.66
2018-01-07T14:03:26.795Z,102064.66
2018-01-07T14:05:54.327Z,102067.34
2018-01-07T14:08:21.849Z,102065.61
2018-01-07T14:10:49.392Z,102049.68
2018-01-07T14:13:17.533Z,102070.44
2018-01-07T14:15:45.059Z,102073.54
2018-01-07T14:18:12.616Z,102070.01
2018-01-07T14:20:40.171Z,102079.66
2018-01-07T14:23:07.673Z,102080.09
2018-01-07T14:25:35.165Z,102070.55
2018-01-07T14:28:03.089Z,102067.75
2018-01-07T14:30:30.584Z,102075.58
2018-01-07T14:32:58.087Z,102083.12
2018-01-07T14:35:25.607Z,102080.65
2018-01-07T14:37:53.100Z,102096.05
2018-01-07T14:40:20.613Z,102095.47
2018-01-07T14:42:48.098Z,102095.15
2018-01-07T14:45:15.635Z,102102.78
2018-01-07T14:47:43.140Z,102102.15
2018-01-07T14:50:10.684Z,102100.06
2018-01-07T14:52:39.071Z,102099.86
2018-01-07T14:55:06.570Z,102098.83
2018-01-07T14:57:34.058Z,102105.47
2018-01-07T15:00:01.570Z,102114.92
2018-01-07T15:02:29.055Z,102110.63
2018-01-07T15:04:56.529Z,102117.61
2018-01-07T15:07:24.012Z,102115.28
2018-01-07T15:09:51.507Z,102105.51
2018-01-07T15:12:19.015Z,102116.78
2018-01-07T15:14:46.502Z,102123.81
2018-01-07T15:17:13.992Z,102120.24
2018-01-07T15:19:41.504Z,102121.31
2018-01-07T15:22:09.011Z,102102.24
2018-01-07T15:24:36.507Z,102122.31
2018-01-07T15:27:04.012Z,102112.89
2018-01-07T15:29:31.519Z,102128.11
2018-01-07T15:32:06.005Z,102122.78
2018-01-07T15:34:33.500Z,102120.05
2018-01-07T15:37:01.009Z,102117.02
2018-01-07T15:39:28.552Z,102115.62
2018-01-07T15:41:56.059Z,102115.96
2018-01-07T15:44:23.576Z,102111.42
2018-01-07T15:46:51.078Z,102123.62
2018-01-07T15:49:18.900Z,102125.17
2018-01-07T15:51:46.386Z,102130.14
2018-01-07T15:54:13.898Z,102142.63
2018-01-07T15:56:41.390Z,102143.89
2018-01-07T15:59:09.803Z,102148.91
2018-01-07T16:01:37.301Z,102147.50
2018-01-07T16:04:04.911Z,102150.91
2018-01-07T16:06:32.515Z,102161.25
2018-01-07T16:09:00.044Z,102149.45
2018-01-07T16:11:27.547Z,102158.05
2018-01-07T16:13:55.105Z,102151.43
2018-01-07T16:16:22.644Z,102158.27
2018-01-07T16:18:50.120Z,102153.87
2018-01-07T16:21:19.312Z,102150.72
2018-01-07T16:23:46.847Z,102155.81
2018-01-07T16:26:14.459Z,102154.05
2018-01-07T16:28:41.944Z,102156.70
2018-01-07T16:33:55.011Z,102155.93
2018-01-07T16:36:22.540Z,102157.41
2018-01-07T16:38:50.036Z,102155.16
2018-01-07T16:41:17.537Z,102159.19
2018-01-07T16:43:45.280Z,102162.52
2018-01-07T16:46:12.847Z,102166.20
2018-01-07T16:48:40.361Z,102164.28
2018-01-07T16:51:07.863Z,102154.21
2018-01-07T16:53:36.084Z,102154.89
2018-01-07T16:56:03.573Z,102152.57
2018-01-07T16:58:31.082Z,102159.38
2018-01-07T17:00:58.591Z,102155.46
2018-01-07T17:03:26.125Z,102147.47
2018-01-07T17:05:53.627Z,102164.70
2018-01-07T17:08:21.725Z,102159.87
2018-01-07T17:10:49.243Z,102157.98
2018-01-07T17:13:16.741Z,102154.91
2018-01-07T17:15:44.251Z,102150.12
2018-01-07T17:18:11.787Z,102162.46
2018-01-07T17:20:39.303Z,102156.73
2018-01-07T17:23:06.789Z,102157.42
2018-01-07T17:25:34.277Z,102162.34
2018-01-07T17:28:01.784Z,102156.48
2018-01-07T17:30:29.303Z,102162.69
2018-01-07T17:32:56.834Z,102168.12
2018-01-07T17:35:24.340Z,102155.93
2018-01-07T17:37:51.820Z,102167.58
2018-01-07T17:40:19.325Z,102173.47
2018-01-07T17:42:46.813Z,102177.89
2018-01-07T17:45:14.336Z,102174.48
2018-01-07T17:47:41.847Z,102169.52
2018-01-07T17:50:09.350Z,102175.38
2018-01-07T17:52:37.425Z,102170.10
2018-01-07T17:55:04.932Z,102167.55
2018-01-07T17:57:32.443Z,102183.24
2018-01-07T17:59:59.943Z,102187.82
2018-01-07T18:02:27.448Z,102188.47
2018-01-07T18:04:54.920Z,102191.05
2018-01-07T18:07:22.408Z,102190.93
2018-01-07T18:09:49.889Z,102206.37
2018-01-07T18:12:18.108Z,102214.63
2018-01-07T18:14:45.636Z,102213.52
2018-01-07T18:17:13.216Z,102213.34
2018-01-07T18:19:40.716Z,102212.57
2018-01-07T18:22:08.232Z,102222.39
2018-01-07T18:24:35.744Z,102229.49
2018-01-07T18:27:03.255Z,102236.67
2018-01-07T18:29:30.756Z,102239.02
2018-01-07T18:31:58.255Z,102249.91
2018-01-07T18:34:25.736Z,102249.82
2018-01-07T18:36:53.999Z,102251.23
2018-01-07T18:39:21.509Z,102250.89
2018-01-07T18:41:49.019Z,102251.66
2018-01-07T18:44:16.512Z,102248.31
2018-01-07T18:46:43.985Z,102256.30
2018-01-07T18:49:11.482Z,102254.24
2018-01-07T18:51:39.004Z,102259.89
2018-01-07T18:54:06.501Z,102259.55
2018-01-07T18:56:34.019Z,102266.12
2018-01-07T18:59:01.564Z,102268.12
2018-01-07T19:01:29.090Z,102263.91
2018-01-07T19:03:56.608Z,102262.66
2018-01-07T19:06:24.115Z,102271.98
2018-01-07T19:08:51.615Z,102271.86
2018-01-07T19:11:19.154Z,102272.60
2018-01-07T19:13:46.663Z,102269.98
2018-01-07T19:16:14.146Z,102273.80
2018-01-07T19:18:41.645Z,102270.63
2018-01-07T19:21:09.139Z,102268.78
2018-01-07T19:23:36.767Z,102269.42
2018-01-07T19:26:04.317Z,102271.58
2018-01-07T19:28:31.875Z,102275.69
2018-01-07T19:30:59.410Z,102268.01
2018-01-07T19:33:28.003Z,102273.87
2018-01-07T19:35:55.569Z,102279.86
2018-01-07T19:38:23.119Z,102279.77
2018-01-07T19:40:51.464Z,102277.30
2018-01-07T19:43:18.991Z,102280.20
2018-01-07T19:45:46.854Z,102280.52
2018-01-07T19:48:14.472Z,102283.16
2018-01-07T19:50:41.979Z,102279.80
2018-01-07T19:53:10.428Z,102282.69
2018-01-07T19:55:37.987Z,102281.03
2018-01-07T19:58:05.518Z,102281.98
2018-01-07T20:00:33.020Z,102284.59
2018-01-07T20:03:00.509Z,102286.38
2018-01-07T20:05:29.791Z,102277.59
2018-01-07T20:07:57.340Z,102274.58
2018-01-07T20:10:24.846Z,102275.53
2018-01-07T20:12:52.353Z,102274.77
2018-01-07T20:15:19.915Z,102282.29
2018-01-07T20:17:47.522Z,102271.62
2018-01-07T20:20:15.004Z,102281.65
2018-01-07T20:22:42.515Z,102281.71
2018-01-07T20:25:10.030Z,102282.81
2018-01-07T20:27:37.538Z,102281.33
2018-01-07T20:30:05.060Z,102274.69
2018-01-07T20:32:32.597Z,102280.41
2018-01-07T20:35:00.080Z,102286.80
2018-01-07T20:37:27.582Z,102283.29
2018-01-07T20:39:55.091Z,102285.84
2018-01-07T20:42:22.603Z,102282.30
2018-01-07T20:44:50.111Z,102285.75
2018-01-07T20:47:17.659Z,102289.32
2018-01-07T20:49:45.157Z,102282.89
2018-01-07T20:52:12.663Z,102276.80
2018-01-07T20:54:40.213Z,102276.75
2018-01-07T20:57:07.715Z,102273.98
2018-01-07T20:59:35.204Z,102285.48
2018-01-07T21:02:02.692Z,102288.00
2018-01-07T21:04:30.208Z,102281.41
2018-01-07T21:06:57.715Z,102290.44
2018-01-07T21:09:25.254Z,102291.78
2018-01-07T21:11:52.851Z,102292.23
2018-01-07T21:14:20.564Z,102292.89
2018-01-07T21:16:48.098Z,102295.64
2018-01-07T21:19:15.583Z,102288.73
2018-01-07T21:21:43.102Z,102294.48
2018-01-07T21:24:10.628Z,102292.93
2018-01-07T21:26:38.143Z,102291.94
2018-01-07T21:29:05.624Z,102296.47
2018-01-07T21:31:33.432Z,102305.73
2018-01-07T21:34:00.924Z,102299.19
2018-01-07T21:36:28.420Z,102304.24
2018-01-07T21:38:56.516Z,102302.56
2018-01-07T21:41:24.112Z,102302.42
2018-01-07T21:43:51.619Z,102305.96
2018-01-07T21:46:19.124Z,102300.37
2018-01-07T21:48:46.623Z,102297.82
2018-01-07T21:51:14.153Z,102311.02
2018-01-07T21:53:41.715Z,102305.13
2018-01-07T21:56:09.322Z,102310.78
2018-01-07T21:58:36.852Z,102307.44
2018-01-07T22:01:15.985Z,102315.27
2018-01-07T22:04:00.186Z,102308.82
2018-01-07T22:06:39.475Z,102310.56
2018-01-07T22:09:06.961Z,102310.23
2018-01-07T22:11:34.441Z,102311.22
2018-01-07T22:14:01.934Z,102309.96
2018-01-07T22:16:29.462Z,102306.52
2018-01-07T22:18:56.983Z,102310.45
2018-01-07T22:21:24.508Z,102311.31
2018-01-07T22:23:54.721Z,102305.48
2018-01-07T22:26:22.292Z,102310.44
2018-01-07T22:28:49.785Z,102306.25
2018-01-07T22:31:17.282Z,102305.75
2018-01-07T22:33:44.787Z,102304.65
2018-01-07T22:36:12.340Z,102300.21
2018-01-07T22:38:39.907Z,102297.17
2018-01-07T22:41:07.639Z,102301.00
2018-01-07T22:43:35.156Z,102303.12
2018-01-07T22:46:02.667Z,102297.72
2018-01-07T22:48:32.429Z,102295.20
2018-01-07T22:51:00.059Z,102296.18
2018-01-07T22:53:27.594Z,102301.63
2018-01-07T22:55:55.124Z,102300.95
2018-01-07T22:58:22.608Z,102304.58
2018-01-07T23:00:50.148Z,102297.66
2018-01-07T23:03:18.120Z,102302.94
2018-01-07T23:05:45.593Z,102303.86
2018-01-07T23:08:13.264Z,102303.90
2018-01-07T23:10:40.777Z,102300.58
2018-01-07T23:13:08.286Z,102294.69
2018-01-07T23:15:35.905Z,102300.00
2018-01-07T23:18:04.417Z,102298.17
2018-01-07T23:20:31.927Z,102307.53
2018-01-07T23:23:00.332Z,102298.47
2018-01-07T23:25:27.850Z,102307.78
2018-01-07T23:27:55.379Z,102306.53
2018-01-07T23:30:24.524Z,102314.24
2018-01-07T23:32:52.016Z,102313.39
2018-01-07T23:35:19.518Z,102314.57
2018-01-07T23:37:49.765Z,102309.80
2018-01-07T23:40:17.388Z,102310.63
2018-01-07T23:42:44.895Z,102310.91
2018-01-07T23:45:12.420Z,102309.23
2018-01-07T23:47:39.914Z,102306.14
2018-01-07T23:50:07.460Z,102306.14
2018-01-07T23:52:34.952Z,102301.41
2018-01-07T23:55:02.470Z,102304.36
2018-01-07T23:57:29.996Z,102308.80
2018-01-07T23:59:58.894Z,102302.17
